createdAt,value
2016-08-25T00:00:05.956Z,0
2016-08-25T00:01:18.941Z,0
2016-08-25T00:02:31.936Z,0
2016-08-25T00:03:44.911Z,0
2016-08-25T00:04:57.899Z,0
2016-08-25T00:06:10.880Z,0
2016-08-25T00:07:23.861Z,0
2016-08-25T00:08:36.840Z,0
2016-08-25T00:09:50.025Z,0
2016-08-25T00:11:03.223Z,0
2016-08-25T00:12:16.200Z,0
2016-08-25T00:13:29.384Z,0
2016-08-25T00:14:42.555Z,0
2016-08-25T00:15:55.535Z,0
2016-08-25T00:17:08.525Z,0
2016-08-25T00:18:21.515Z,0
2016-08-25T00:19:34.499Z,0
2016-08-25T00:20:47.497Z,0
2016-08-25T00:22:00.687Z,0
2016-08-25T00:23:13.673Z,0
2016-08-25T00:24:26.651Z,0
2016-08-25T00:25:39.636Z,0
2016-08-25T00:26:52.631Z,0
2016-08-25T00:28:05.619Z,0
2016-08-25T00:29:18.599Z,0
2016-08-25T00:30:31.582Z,0
2016-08-25T00:31:44.570Z,0
2016-08-25T00:32:57.542Z,0
2016-08-25T00:34:10.522Z,0
2016-08-25T00:35:23.511Z,0
2016-08-25T00:36:36.493Z,0
2016-08-25T00:37:49.471Z,0
2016-08-25T00:39:02.455Z,0
2016-08-25T00:40:15.439Z,0
2016-08-25T00:41:28.446Z,0
2016-08-25T00:42:41.435Z,0
2016-08-25T00:43:54.417Z,0
2016-08-25T00:45:07.412Z,0
2016-08-25T00:46:20.400Z,0
2016-08-25T00:47:33.391Z,0
2016-08-25T00:48:46.379Z,0
2016-08-25T00:49:59.371Z,0
2016-08-25T00:51:12.370Z,0
2016-08-25T00:52:25.358Z,0
2016-08-25T00:53:38.487Z,0
2016-08-25T00:54:51.475Z,0
2016-08-25T00:56:04.466Z,0
2016-08-25T00:57:17.455Z,0
2016-08-25T00:58:30.435Z,0
2016-08-25T00:59:43.423Z,0
2016-08-25T01:00:56.411Z,0
2016-08-25T01:02:09.402Z,0
2016-08-25T01:03:22.397Z,0
2016-08-25T01:04:35.383Z,0
2016-08-25T01:05:48.362Z,0
2016-08-25T01:07:01.541Z,0
2016-08-25T01:08:14.528Z,0
2016-08-25T01:09:27.517Z,0
2016-08-25T01:10:40.495Z,0
2016-08-25T01:11:53.485Z,0
2016-08-25T01:13:06.463Z,0
2016-08-25T01:14:19.461Z,0
2016-08-25T01:15:32.469Z,0
2016-08-25T01:16:45.453Z,0
2016-08-25T01:17:58.434Z,0
2016-08-25T01:19:11.408Z,0
2016-08-25T01:20:24.391Z,0
2016-08-25T01:21:37.380Z,0
2016-08-25T01:22:50.359Z,0
2016-08-25T01:24:03.348Z,0
2016-08-25T01:25:16.527Z,0
2016-08-25T01:26:29.512Z,0
2016-08-25T01:27:42.693Z,0
2016-08-25T01:28:55.683Z,0
2016-08-25T01:30:08.665Z,0
2016-08-25T01:31:21.647Z,0
2016-08-25T01:32:34.646Z,0
2016-08-25T01:33:47.627Z,0
2016-08-25T01:35:00.623Z,0
2016-08-25T01:36:13.611Z,0
2016-08-25T01:37:26.801Z,0
2016-08-25T01:38:39.785Z,0
2016-08-25T01:39:52.767Z,0
2016-08-25T01:41:05.740Z,0
2016-08-25T01:42:18.724Z,0
2016-08-25T01:43:31.700Z,0
2016-08-25T01:44:44.675Z,0
2016-08-25T01:45:57.861Z,0
2016-08-25T01:47:10.846Z,0
2016-08-25T01:48:23.830Z,0
2016-08-25T01:49:36.801Z,0
2016-08-25T01:50:49.780Z,0
2016-08-25T01:52:02.765Z,0
2016-08-25T01:53:15.751Z,0
2016-08-25T01:54:28.787Z,0
2016-08-25T01:55:41.761Z,0
2016-08-25T01:56:54.948Z,0
2016-08-25T01:58:07.929Z,0
2016-08-25T01:59:20.924Z,0
2016-08-25T02:00:34.329Z,0
2016-08-25T02:01:47.315Z,0
2016-08-25T02:03:00.299Z,0
2016-08-25T02:04:13.289Z,0
2016-08-25T02:05:26.265Z,0
2016-08-25T02:06:39.242Z,0
2016-08-25T02:07:52.223Z,0
2016-08-25T02:09:05.206Z,0
2016-08-25T02:10:18.190Z,0
2016-08-25T02:11:31.164Z,0
2016-08-25T02:12:44.148Z,0
2016-08-25T02:13:57.125Z,0
2016-08-25T02:15:10.111Z,0
2016-08-25T02:16:23.089Z,0
2016-08-25T02:17:36.078Z,0
2016-08-25T02:18:49.061Z,0
2016-08-25T02:20:02.261Z,0
2016-08-25T02:21:15.235Z,0
2016-08-25T02:22:28.420Z,0
2016-08-25T02:23:41.624Z,0
2016-08-25T02:24:55.024Z,0
2016-08-25T02:26:07.993Z,0
2016-08-25T02:27:20.974Z,0
2016-08-25T02:28:33.951Z,0
2016-08-25T02:29:46.937Z,0
2016-08-25T02:30:59.926Z,0
2016-08-25T02:32:12.913Z,0
2016-08-25T02:33:25.911Z,0
2016-08-25T02:34:38.916Z,0
2016-08-25T02:35:51.896Z,0
2016-08-25T02:37:04.876Z,0
2016-08-25T02:38:17.869Z,0
2016-08-25T02:39:30.850Z,0
2016-08-25T02:40:43.821Z,0
2016-08-25T02:41:56.804Z,0
2016-08-25T02:43:09.802Z,0
2016-08-25T02:44:22.798Z,0
2016-08-25T02:45:35.797Z,0
2016-08-25T02:46:48.780Z,0
2016-08-25T02:48:01.758Z,0
2016-08-25T02:49:15.143Z,0
2016-08-25T02:50:28.127Z,0
2016-08-25T02:51:41.336Z,0
2016-08-25T02:52:54.321Z,0
2016-08-25T02:54:07.321Z,0
2016-08-25T02:55:20.355Z,0
2016-08-25T02:56:33.338Z,0
2016-08-25T02:57:46.314Z,0
2016-08-25T02:58:59.513Z,0
2016-08-25T03:00:12.698Z,0
2016-08-25T03:01:25.683Z,0
2016-08-25T03:02:38.670Z,0
2016-08-25T03:03:51.641Z,0
2016-08-25T03:05:04.638Z,0
2016-08-25T03:06:17.629Z,0
2016-08-25T03:07:30.613Z,0
2016-08-25T03:08:43.798Z,0
2016-08-25T03:09:56.788Z,0
2016-08-25T03:11:09.771Z,0
2016-08-25T03:12:22.749Z,0
2016-08-25T03:13:35.729Z,0
2016-08-25T03:14:48.713Z,0
2016-08-25T03:16:01.889Z,0
2016-08-25T03:17:14.861Z,0
2016-08-25T03:18:27.842Z,0
2016-08-25T03:19:40.819Z,0
2016-08-25T03:20:53.803Z,0
2016-08-25T03:22:06.777Z,0
2016-08-25T03:23:19.760Z,0
2016-08-25T03:24:32.739Z,0
2016-08-25T03:25:45.735Z,0
2016-08-25T03:26:58.916Z,0
2016-08-25T03:28:11.887Z,0
2016-08-25T03:29:24.863Z,0
2016-08-25T03:30:37.852Z,0
2016-08-25T03:31:50.831Z,0
2016-08-25T03:33:03.812Z,0
2016-08-25T03:34:16.797Z,0
2016-08-25T03:35:29.977Z,0
2016-08-25T03:36:42.961Z,0
2016-08-25T03:37:55.939Z,0
2016-08-25T03:39:09.321Z,0
2016-08-25T03:40:22.302Z,0
2016-08-25T03:41:35.297Z,0
2016-08-25T03:42:48.277Z,0
2016-08-25T03:44:01.257Z,0
2016-08-25T03:45:14.240Z,0
2016-08-25T03:46:27.217Z,0
2016-08-25T03:47:40.415Z,0
2016-08-25T03:48:53.584Z,0
2016-08-25T03:50:06.574Z,0
2016-08-25T03:51:19.551Z,0
2016-08-25T03:52:32.554Z,4
2016-08-25T03:53:45.535Z,4
2016-08-25T03:54:58.513Z,0
2016-08-25T03:56:11.560Z,4
2016-08-25T03:57:24.549Z,0
2016-08-25T03:58:37.531Z,4
2016-08-25T03:59:50.513Z,4
2016-08-25T04:01:03.695Z,4
2016-08-25T04:02:16.677Z,8
2016-08-25T04:03:29.861Z,12
2016-08-25T04:04:42.842Z,12
2016-08-25T04:05:55.824Z,12
2016-08-25T04:07:08.802Z,16
2016-08-25T04:08:21.983Z,20
2016-08-25T04:09:34.961Z,24
2016-08-25T04:10:47.951Z,28
2016-08-25T04:12:00.942Z,36
2016-08-25T04:13:13.927Z,40
2016-08-25T04:14:27.117Z,52
2016-08-25T04:15:40.086Z,60
2016-08-25T04:16:53.066Z,68
2016-08-25T04:18:06.040Z,80
2016-08-25T04:19:19.018Z,92
2016-08-25T04:20:32.007Z,108
2016-08-25T04:21:44.987Z,124
2016-08-25T04:22:57.973Z,140
2016-08-25T04:24:10.965Z,160
2016-08-25T04:25:23.944Z,176
2016-08-25T04:26:36.919Z,196
2016-08-25T04:27:49.914Z,224
2016-08-25T04:29:02.900Z,248
2016-08-25T04:30:15.870Z,272
2016-08-25T04:31:28.844Z,300
2016-08-25T04:32:41.815Z,328
2016-08-25T04:33:54.996Z,360
2016-08-25T04:35:07.982Z,396
2016-08-25T04:36:20.963Z,432
2016-08-25T04:37:33.958Z,468
2016-08-25T04:38:47.145Z,504
2016-08-25T04:40:00.121Z,540
2016-08-25T04:41:13.102Z,584
2016-08-25T04:42:26.082Z,624
2016-08-25T04:43:39.065Z,664
2016-08-25T04:44:52.046Z,708
2016-08-25T04:46:05.032Z,752
2016-08-25T04:47:18.019Z,796
2016-08-25T04:48:31.201Z,840
2016-08-25T04:49:44.381Z,888
2016-08-25T04:50:57.367Z,940
2016-08-25T04:52:10.544Z,1004
2016-08-25T04:53:23.533Z,1084
2016-08-25T04:54:36.521Z,1104
2016-08-25T04:55:49.500Z,1124
2016-08-25T04:57:02.522Z,1172
2016-08-25T04:58:15.497Z,1220
2016-08-25T04:59:28.482Z,1264
2016-08-25T05:00:41.476Z,1312
2016-08-25T05:01:54.654Z,1364
2016-08-25T05:03:07.632Z,1436
2016-08-25T05:04:20.814Z,1472
2016-08-25T05:05:33.797Z,1500
2016-08-25T05:06:46.772Z,1544
2016-08-25T05:07:59.769Z,1596
2016-08-25T05:09:12.751Z,1736
2016-08-25T05:10:25.729Z,1696
2016-08-25T05:11:38.915Z,1708
2016-08-25T05:12:51.922Z,2008
2016-08-25T05:14:04.906Z,2140
2016-08-25T05:15:17.880Z,1860
2016-08-25T05:16:31.062Z,1888
2016-08-25T05:17:44.047Z,1904
2016-08-25T05:18:57.027Z,1936
2016-08-25T05:20:10.001Z,1976
2016-08-25T05:21:22.977Z,2012
2016-08-25T05:22:36.148Z,2044
2016-08-25T05:23:49.133Z,2084
2016-08-25T05:25:02.113Z,2116
2016-08-25T05:26:15.090Z,2180
2016-08-25T05:27:28.074Z,3300
2016-08-25T05:28:41.048Z,2484
2016-08-25T05:29:54.026Z,2304
2016-08-25T05:31:07.025Z,2300
2016-08-25T05:32:20.201Z,2320
2016-08-25T05:33:33.189Z,2352
2016-08-25T05:34:46.165Z,2380
2016-08-25T05:35:59.141Z,2412
2016-08-25T05:37:12.135Z,2440
2016-08-25T05:38:25.109Z,2476
2016-08-25T05:39:38.093Z,2508
2016-08-25T05:40:51.069Z,2528
2016-08-25T05:42:04.048Z,2552
2016-08-25T05:43:17.025Z,2588
2016-08-25T05:44:29.999Z,2624
2016-08-25T05:45:44.694Z,2648
2016-08-25T05:46:57.674Z,2676
2016-08-25T05:48:10.660Z,2704
2016-08-25T05:49:23.864Z,2732
2016-08-25T05:50:36.859Z,2760
2016-08-25T05:51:49.854Z,2808
2016-08-25T05:53:02.839Z,2812
2016-08-25T05:54:15.934Z,2840
2016-08-25T05:55:28.914Z,2868
2016-08-25T05:56:41.896Z,2896
2016-08-25T05:57:54.938Z,2912
2016-08-25T05:59:07.922Z,2944
2016-08-25T06:00:20.920Z,2960
2016-08-25T06:01:33.906Z,2984
2016-08-25T06:02:46.896Z,3004
2016-08-25T06:03:59.877Z,3040
2016-08-25T06:05:12.853Z,3060
2016-08-25T06:06:25.819Z,3084
2016-08-25T06:07:38.797Z,3120
2016-08-25T06:08:51.989Z,3136
2016-08-25T06:10:04.972Z,3172
2016-08-25T06:11:17.957Z,3200
2016-08-25T06:12:30.935Z,3220
2016-08-25T06:13:45.055Z,3252
2016-08-25T06:14:59.296Z,3324
2016-08-25T06:16:12.284Z,3524
2016-08-25T06:17:25.280Z,3344
2016-08-25T06:18:38.393Z,3392
2016-08-25T06:19:51.421Z,3504
2016-08-25T06:21:04.468Z,3416
2016-08-25T06:22:17.655Z,3444
2016-08-25T06:23:31.420Z,3480
2016-08-25T06:24:45.400Z,3520
2016-08-25T06:25:58.372Z,3560
2016-08-25T06:27:11.376Z,3872
2016-08-25T06:28:24.558Z,3836
2016-08-25T06:29:37.545Z,4220
2016-08-25T06:30:52.047Z,5392
2016-08-25T06:32:05.091Z,4456
2016-08-25T06:33:18.095Z,3916
2016-08-25T06:34:32.253Z,3916
2016-08-25T06:35:45.786Z,4064
2016-08-25T06:36:58.769Z,5872
2016-08-25T06:38:12.016Z,32576
2016-08-25T06:39:26.766Z,67936
2016-08-25T06:40:42.607Z,66112
2016-08-25T06:41:58.408Z,62048
2016-08-25T06:43:14.103Z,67072
2016-08-25T06:44:27.549Z,69312
2016-08-25T06:45:42.215Z,71552
2016-08-25T06:46:56.336Z,68672
2016-08-25T06:48:11.613Z,66400
2016-08-25T06:49:25.119Z,71008
2016-08-25T06:50:38.780Z,71616
2016-08-25T06:51:52.544Z,71648
2016-08-25T06:53:06.300Z,69856
2016-08-25T06:54:20.001Z,70688
2016-08-25T06:55:33.367Z,71872
2016-08-25T06:56:46.359Z,74496
2016-08-25T06:57:59.403Z,77792
2016-08-25T06:59:12.395Z,78944
2016-08-25T07:00:25.398Z,78368
2016-08-25T07:01:38.385Z,79488
2016-08-25T07:02:55.868Z,81312
2016-08-25T07:04:13.042Z,83008
2016-08-25T07:05:28.009Z,79392
2016-08-25T07:06:42.677Z,75904
2016-08-25T07:08:02.551Z,76064
2016-08-25T07:09:18.164Z,77632
2016-08-25T07:10:33.480Z,79232
2016-08-25T07:11:46.796Z,83616
2016-08-25T07:12:59.792Z,82112
2016-08-25T07:14:13.009Z,77984
2016-08-25T07:15:26.009Z,76384
2016-08-25T07:16:39.014Z,76768
2016-08-25T07:17:54.211Z,75520
2016-08-25T07:19:07.935Z,73728
2016-08-25T07:20:21.007Z,74336
2016-08-25T07:21:34.295Z,74752
2016-08-25T07:22:47.754Z,74624
2016-08-25T07:24:00.972Z,72832
2016-08-25T07:25:14.516Z,72128
2016-08-25T07:26:30.118Z,71264
2016-08-25T07:27:44.119Z,73056
2016-08-25T07:28:57.313Z,73184
2016-08-25T07:30:10.323Z,71424
2016-08-25T07:31:23.637Z,70624
2016-08-25T07:32:36.653Z,71936
2016-08-25T07:33:50.715Z,68960
2016-08-25T07:35:05.500Z,71808
2016-08-25T07:36:19.211Z,76192
2016-08-25T07:37:33.462Z,78048
2016-08-25T07:38:46.535Z,76832
2016-08-25T07:40:00.087Z,74624
2016-08-25T07:41:13.103Z,75520
2016-08-25T07:42:26.178Z,77728
2016-08-25T07:43:41.770Z,78464
2016-08-25T07:44:56.502Z,79648
2016-08-25T07:46:12.067Z,79968
2016-08-25T07:47:25.827Z,81824
2016-08-25T07:48:38.879Z,82368
2016-08-25T07:49:55.827Z,82528
2016-08-25T07:51:17.056Z,84064
2016-08-25T07:52:37.846Z,88672
2016-08-25T07:54:00.030Z,88224
2016-08-25T07:55:16.830Z,88768
2016-08-25T07:56:29.840Z,89344
2016-08-25T07:57:42.876Z,89120
2016-08-25T07:58:56.773Z,91328
2016-08-25T08:00:09.866Z,91648
2016-08-25T08:01:23.067Z,88640
2016-08-25T08:02:38.217Z,89504
2016-08-25T08:03:51.687Z,89344
2016-08-25T08:05:04.894Z,88256
2016-08-25T08:06:18.112Z,84960
2016-08-25T08:07:31.200Z,78720
2016-08-25T08:08:44.231Z,75584
2016-08-25T08:09:57.235Z,80736
2016-08-25T08:11:10.249Z,85024
2016-08-25T08:12:37.442Z,83904
2016-08-25T08:14:12.297Z,80672
2016-08-25T08:15:25.431Z,81184
2016-08-25T08:16:38.528Z,80704
2016-08-25T08:17:51.754Z,78976
2016-08-25T08:19:04.760Z,80320
2016-08-25T08:20:17.795Z,80736
2016-08-25T08:21:30.804Z,81920
2016-08-25T08:22:43.822Z,82976
2016-08-25T08:23:56.848Z,86304
2016-08-25T08:25:09.861Z,88608
2016-08-25T08:26:22.883Z,85504
2016-08-25T08:27:35.903Z,83872
2016-08-25T08:28:48.912Z,81984
2016-08-25T08:30:01.932Z,79360
2016-08-25T08:31:14.953Z,76576
2016-08-25T08:32:27.960Z,75072
2016-08-25T08:33:41.165Z,78464
2016-08-25T08:34:54.193Z,81216
2016-08-25T08:36:07.396Z,82784
2016-08-25T08:37:20.709Z,83296
2016-08-25T08:38:33.897Z,84000
2016-08-25T08:39:46.914Z,82880
2016-08-25T08:40:59.930Z,85920
2016-08-25T08:42:12.927Z,88608
2016-08-25T08:43:25.975Z,89184
2016-08-25T08:44:38.985Z,93824
2016-08-25T08:45:52.264Z,97280
2016-08-25T08:47:06.742Z,96800
2016-08-25T08:48:19.882Z,95200
2016-08-25T08:49:32.887Z,95296
2016-08-25T08:50:45.893Z,88800
2016-08-25T08:51:58.919Z,89984
2016-08-25T08:53:13.239Z,94624
2016-08-25T08:54:27.289Z,97568
2016-08-25T08:55:40.498Z,100864
2016-08-25T08:56:53.513Z,101184
2016-08-25T08:58:06.620Z,95456
2016-08-25T08:59:19.692Z,95744
2016-08-25T09:00:32.704Z,99680
2016-08-25T09:01:45.849Z,100384
2016-08-25T09:02:58.862Z,99840
2016-08-25T09:04:11.885Z,101952
2016-08-25T09:05:24.910Z,103680
2016-08-25T09:06:37.915Z,102624
2016-08-25T09:07:50.969Z,100480
2016-08-25T09:09:04.023Z,77792
2016-08-25T09:10:17.035Z,76640
2016-08-25T09:11:30.062Z,73248
2016-08-25T09:12:43.070Z,67616
2016-08-25T09:13:56.081Z,67104
2016-08-25T09:15:09.104Z,70560
2016-08-25T09:16:22.127Z,68768
2016-08-25T09:17:35.353Z,66240
2016-08-25T09:18:48.366Z,69792
2016-08-25T09:20:01.376Z,74944
2016-08-25T09:21:14.386Z,77312
2016-08-25T09:22:27.388Z,73760
2016-08-25T09:23:40.517Z,71808
2016-08-25T09:24:53.774Z,75296
2016-08-25T09:26:06.835Z,80128
2016-08-25T09:27:19.854Z,79392
2016-08-25T09:28:32.865Z,75744
2016-08-25T09:29:45.975Z,75328
2016-08-25T09:30:59.138Z,73088
2016-08-25T09:32:12.141Z,71040
2016-08-25T09:33:25.158Z,68032
2016-08-25T09:34:38.182Z,64576
2016-08-25T09:35:51.394Z,65696
2016-08-25T09:37:04.416Z,66880
2016-08-25T09:38:17.418Z,63616
2016-08-25T09:39:30.420Z,57760
2016-08-25T09:40:47.576Z,64128
2016-08-25T09:42:07.765Z,70688
2016-08-25T09:43:22.124Z,72960
2016-08-25T09:44:35.139Z,75456
2016-08-25T09:45:48.205Z,74176
2016-08-25T09:47:01.499Z,71168
2016-08-25T09:48:14.526Z,69248
2016-08-25T09:49:27.739Z,66592
2016-08-25T09:50:40.754Z,65152
2016-08-25T09:51:53.829Z,66048
2016-08-25T09:53:06.867Z,67488
2016-08-25T09:54:19.898Z,70400
2016-08-25T09:55:32.982Z,73632
2016-08-25T09:56:46.251Z,70464
2016-08-25T09:58:00.033Z,70944
2016-08-25T09:59:13.309Z,68480
2016-08-25T10:00:26.818Z,67936
2016-08-25T10:01:40.623Z,68672
2016-08-25T10:02:53.917Z,68608
2016-08-25T10:04:06.935Z,66272
2016-08-25T10:05:19.933Z,66848
2016-08-25T10:06:32.937Z,67072
2016-08-25T10:07:46.159Z,68800
2016-08-25T10:08:59.374Z,67872
2016-08-25T10:10:12.385Z,65952
2016-08-25T10:11:25.396Z,66912
2016-08-25T10:12:38.614Z,67968
2016-08-25T10:13:51.612Z,68096
2016-08-25T10:15:04.822Z,60096
2016-08-25T10:16:18.028Z,59520
2016-08-25T10:17:31.242Z,61760
2016-08-25T10:18:44.470Z,61312
2016-08-25T10:19:57.482Z,63584
2016-08-25T10:21:10.502Z,69824
2016-08-25T10:22:23.509Z,69920
2016-08-25T10:23:36.517Z,70272
2016-08-25T10:24:49.725Z,71392
2016-08-25T10:26:02.737Z,72960
2016-08-25T10:27:15.752Z,70304
2016-08-25T10:28:28.760Z,70752
2016-08-25T10:29:41.761Z,73696
2016-08-25T10:30:54.799Z,65280
2016-08-25T10:32:07.807Z,61696
2016-08-25T10:33:20.821Z,59936
2016-08-25T10:34:33.837Z,52480
2016-08-25T10:35:46.858Z,58176
2016-08-25T10:36:59.869Z,61760
2016-08-25T10:38:13.072Z,60608
2016-08-25T10:39:26.072Z,62656
2016-08-25T10:40:39.288Z,60704
2016-08-25T10:41:52.319Z,63200
2016-08-25T10:43:05.341Z,61792
2016-08-25T10:44:18.552Z,57568
2016-08-25T10:45:31.546Z,58816
2016-08-25T10:46:44.546Z,59584
2016-08-25T10:47:57.553Z,57312
2016-08-25T10:49:10.766Z,56448
2016-08-25T10:50:23.767Z,55776
2016-08-25T10:51:36.808Z,55136
2016-08-25T10:52:49.820Z,57472
2016-08-25T10:54:02.823Z,60032
2016-08-25T10:55:15.832Z,71008
2016-08-25T10:56:28.833Z,78464
2016-08-25T10:57:41.848Z,79808
2016-08-25T10:58:56.606Z,71744
2016-08-25T11:00:11.129Z,48544
2016-08-25T11:01:25.353Z,24544
2016-08-25T11:02:39.394Z,15552
2016-08-25T11:03:53.739Z,14688
2016-08-25T11:05:08.135Z,14528
2016-08-25T11:06:22.032Z,14432
2016-08-25T11:07:40.337Z,15296
2016-08-25T11:08:54.709Z,16480
2016-08-25T11:10:08.042Z,16608
2016-08-25T11:11:21.359Z,17856
2016-08-25T11:12:35.292Z,19872
2016-08-25T11:13:49.132Z,23776
2016-08-25T11:15:02.164Z,25632
2016-08-25T11:16:15.228Z,28800
2016-08-25T11:17:28.275Z,30656
2016-08-25T11:18:41.281Z,33696
2016-08-25T11:19:54.277Z,37216
2016-08-25T11:21:07.502Z,37376
2016-08-25T11:22:20.708Z,36160
2016-08-25T11:23:33.711Z,38048
2016-08-25T11:24:46.715Z,38112
2016-08-25T11:25:59.732Z,37216
2016-08-25T11:27:12.755Z,36864
2016-08-25T11:28:25.772Z,37312
2016-08-25T11:29:38.767Z,38400
2016-08-25T11:30:51.774Z,36416
2016-08-25T11:32:04.772Z,36448
2016-08-25T11:33:17.797Z,38112
2016-08-25T11:34:30.804Z,36256
2016-08-25T11:35:43.800Z,35008
2016-08-25T11:36:56.803Z,35008
2016-08-25T11:38:09.805Z,33952
2016-08-25T11:39:22.813Z,32416
2016-08-25T11:40:35.823Z,32192
2016-08-25T11:41:48.829Z,31840
2016-08-25T11:43:01.838Z,33120
2016-08-25T11:44:15.066Z,31840
2016-08-25T11:45:28.070Z,30848
2016-08-25T11:46:42.789Z,31968
2016-08-25T11:47:59.089Z,30464
2016-08-25T11:49:14.040Z,31680
2016-08-25T11:50:27.048Z,30560
2016-08-25T11:51:40.060Z,29984
2016-08-25T11:52:53.061Z,30304
2016-08-25T11:54:06.096Z,29792
2016-08-25T11:55:19.094Z,28448
2016-08-25T11:56:32.119Z,28448
2016-08-25T11:57:45.131Z,26816
2016-08-25T11:58:58.138Z,25984
2016-08-25T12:00:11.191Z,26656
2016-08-25T12:01:24.196Z,24800
2016-08-25T12:02:37.193Z,24352
2016-08-25T12:03:50.183Z,24800
2016-08-25T12:05:03.402Z,25376
2016-08-25T12:06:16.415Z,24960
2016-08-25T12:07:29.418Z,24192
2016-08-25T12:08:42.422Z,23008
2016-08-25T12:09:55.429Z,21920
2016-08-25T12:11:08.449Z,20160
2016-08-25T12:12:21.450Z,19328
2016-08-25T12:13:34.450Z,18496
2016-08-25T12:14:47.461Z,18048
2016-08-25T12:16:00.478Z,17472
2016-08-25T12:17:13.493Z,16864
2016-08-25T12:18:26.496Z,15808
2016-08-25T12:19:39.716Z,15424
2016-08-25T12:20:52.738Z,15520
2016-08-25T12:22:05.759Z,15616
2016-08-25T12:23:18.765Z,14560
2016-08-25T12:24:31.768Z,14176
2016-08-25T12:25:44.774Z,13984
2016-08-25T12:26:57.774Z,13920
2016-08-25T12:28:10.801Z,5148
2016-08-25T12:29:23.795Z,12992
2016-08-25T12:30:36.878Z,12672
2016-08-25T12:31:49.899Z,12004
2016-08-25T12:33:02.902Z,11784
2016-08-25T12:34:16.100Z,11344
2016-08-25T12:35:29.301Z,10700
2016-08-25T12:36:42.342Z,10360
2016-08-25T12:37:55.349Z,10404
2016-08-25T12:39:08.346Z,9876
2016-08-25T12:40:21.345Z,9916
2016-08-25T12:41:34.591Z,9164
2016-08-25T12:42:47.596Z,9464
2016-08-25T12:44:00.801Z,9276
2016-08-25T12:45:13.895Z,8532
2016-08-25T12:46:27.102Z,8508
2016-08-25T12:47:40.113Z,8336
2016-08-25T12:48:53.114Z,7384
2016-08-25T12:50:06.127Z,8080
2016-08-25T12:51:19.530Z,7532
2016-08-25T12:52:32.723Z,6740
2016-08-25T12:53:45.741Z,6256
2016-08-25T12:54:58.751Z,6144
2016-08-25T12:56:11.755Z,6036
2016-08-25T12:57:24.955Z,5900
2016-08-25T12:58:38.170Z,5784
2016-08-25T12:59:51.175Z,5732
2016-08-25T13:01:04.229Z,5668
2016-08-25T13:02:17.253Z,5584
2016-08-25T13:03:30.255Z,5428
2016-08-25T13:04:43.272Z,5448
2016-08-25T13:05:56.282Z,5268
2016-08-25T13:07:09.281Z,5328
2016-08-25T13:08:22.286Z,5300
2016-08-25T13:09:35.274Z,5288
2016-08-25T13:10:48.517Z,5284
2016-08-25T13:12:01.535Z,5252
2016-08-25T13:13:14.735Z,4132
2016-08-25T13:14:27.735Z,5156
2016-08-25T13:15:40.760Z,4972
2016-08-25T13:16:53.765Z,4684
2016-08-25T13:18:06.765Z,4744
2016-08-25T13:19:20.268Z,4244
2016-08-25T13:20:33.565Z,4196
2016-08-25T13:21:46.593Z,4068
2016-08-25T13:22:59.589Z,4224
2016-08-25T13:24:12.583Z,4284
2016-08-25T13:25:25.788Z,4416
2016-08-25T13:26:38.801Z,4388
2016-08-25T13:27:51.822Z,4432
2016-08-25T13:29:04.820Z,4328
2016-08-25T13:30:17.814Z,4828
2016-08-25T13:31:30.814Z,4872
2016-08-25T13:32:43.819Z,4836
2016-08-25T13:33:57.027Z,4824
2016-08-25T13:35:10.040Z,4812
2016-08-25T13:36:23.040Z,4816
2016-08-25T13:37:36.037Z,4804
2016-08-25T13:38:49.237Z,4816
2016-08-25T13:40:02.231Z,4832
2016-08-25T13:41:15.248Z,4808
2016-08-25T13:42:28.451Z,4804
2016-08-25T13:43:41.447Z,4788
2016-08-25T13:44:54.445Z,4752
2016-08-25T13:46:07.441Z,4740
2016-08-25T13:47:20.444Z,4724
2016-08-25T13:48:33.442Z,4716
2016-08-25T13:49:46.435Z,4700
2016-08-25T13:50:59.439Z,4692
2016-08-25T13:52:12.436Z,4688
2016-08-25T13:53:25.637Z,4676
2016-08-25T13:54:38.630Z,4688
2016-08-25T13:55:51.635Z,4748
2016-08-25T13:57:04.627Z,4956
2016-08-25T13:58:17.642Z,5196
2016-08-25T13:59:30.637Z,5524
2016-08-25T14:00:43.647Z,5840
2016-08-25T14:01:56.693Z,6108
2016-08-25T14:03:09.691Z,6196
2016-08-25T14:04:22.890Z,6296
2016-08-25T14:05:35.903Z,6260
2016-08-25T14:06:48.896Z,6384
2016-08-25T14:08:02.631Z,6280
2016-08-25T14:09:16.119Z,6144
2016-08-25T14:10:29.113Z,5296
2016-08-25T14:11:42.128Z,4660
2016-08-25T14:12:55.125Z,4640
2016-08-25T14:14:08.118Z,4572
2016-08-25T14:15:21.127Z,4504
2016-08-25T14:16:34.140Z,4524
2016-08-25T14:17:47.136Z,4612
2016-08-25T14:19:00.140Z,4564
2016-08-25T14:20:13.140Z,4552
2016-08-25T14:21:26.713Z,5736
2016-08-25T14:22:39.735Z,6752
2016-08-25T14:24:01.441Z,9268
2016-08-25T14:25:14.797Z,12416
2016-08-25T14:26:32.281Z,11116
2016-08-25T14:27:45.470Z,10604
2016-08-25T14:28:58.527Z,10132
2016-08-25T14:30:11.529Z,9680
2016-08-25T14:31:24.543Z,9496
2016-08-25T14:32:37.541Z,8968
2016-08-25T14:33:50.542Z,6572
2016-08-25T14:35:03.540Z,6004
2016-08-25T14:36:16.534Z,8884
2016-08-25T14:37:29.551Z,6132
2016-08-25T14:38:42.745Z,3296
2016-08-25T14:39:55.736Z,3108
2016-08-25T14:41:08.736Z,3068
2016-08-25T14:42:21.734Z,3064
2016-08-25T14:43:34.727Z,3028
2016-08-25T14:44:47.935Z,3000
2016-08-25T14:46:00.930Z,2980
2016-08-25T14:47:14.136Z,2960
2016-08-25T14:48:27.129Z,2924
2016-08-25T14:49:40.117Z,2920
2016-08-25T14:50:53.575Z,2876
2016-08-25T14:52:07.030Z,2840
2016-08-25T14:53:20.140Z,2804
2016-08-25T14:54:33.142Z,2784
2016-08-25T14:55:46.349Z,2744
2016-08-25T14:56:59.339Z,2724
2016-08-25T14:58:12.341Z,2692
2016-08-25T14:59:25.534Z,2676
2016-08-25T15:00:38.527Z,2632
2016-08-25T15:01:51.569Z,2616
2016-08-25T15:03:04.569Z,2600
2016-08-25T15:04:17.763Z,2572
2016-08-25T15:05:30.764Z,2560
2016-08-25T15:06:43.755Z,2528
2016-08-25T15:07:56.742Z,2516
2016-08-25T15:09:09.727Z,2500
2016-08-25T15:10:22.722Z,2484
2016-08-25T15:11:35.726Z,2472
2016-08-25T15:12:48.725Z,2452
2016-08-25T15:14:02.210Z,2436
2016-08-25T15:15:15.216Z,2420
2016-08-25T15:16:28.213Z,2420
2016-08-25T15:17:41.214Z,2408
2016-08-25T15:18:54.202Z,2392
2016-08-25T15:20:07.209Z,2384
2016-08-25T15:21:20.205Z,2380
2016-08-25T15:22:33.218Z,2368
2016-08-25T15:23:46.213Z,2360
2016-08-25T15:24:59.242Z,2352
2016-08-25T15:26:12.242Z,2352
2016-08-25T15:27:25.243Z,2344
2016-08-25T15:28:38.240Z,2344
2016-08-25T15:29:51.232Z,2332
2016-08-25T15:31:04.424Z,2324
2016-08-25T15:32:17.446Z,2320
2016-08-25T15:33:30.436Z,2308
2016-08-25T15:34:43.447Z,2308
2016-08-25T15:35:56.446Z,2292
2016-08-25T15:37:09.434Z,2288
2016-08-25T15:38:22.426Z,2280
2016-08-25T15:39:35.431Z,2272
2016-08-25T15:40:48.427Z,2268
2016-08-25T15:42:01.623Z,2268
2016-08-25T15:43:14.618Z,2272
2016-08-25T15:44:27.607Z,2272
2016-08-25T15:45:40.634Z,2272
2016-08-25T15:46:53.638Z,2272
2016-08-25T15:48:06.827Z,2276
2016-08-25T15:49:19.831Z,2276
2016-08-25T15:50:32.827Z,2272
2016-08-25T15:51:45.824Z,2268
2016-08-25T15:52:58.828Z,2268
2016-08-25T15:54:11.866Z,2272
2016-08-25T15:55:24.896Z,2276
2016-08-25T15:56:37.889Z,2280
2016-08-25T15:57:51.102Z,2284
2016-08-25T15:59:04.111Z,2280
2016-08-25T16:00:17.118Z,2280
2016-08-25T16:01:30.117Z,2284
2016-08-25T16:02:43.159Z,2288
2016-08-25T16:03:56.364Z,2288
2016-08-25T16:05:09.372Z,2288
2016-08-25T16:06:22.363Z,2288
2016-08-25T16:07:35.572Z,2292
2016-08-25T16:08:48.632Z,2296
2016-08-25T16:10:01.619Z,2292
2016-08-25T16:11:14.636Z,2292
2016-08-25T16:12:27.640Z,2296
2016-08-25T16:13:40.664Z,2292
2016-08-25T16:14:53.884Z,2288
2016-08-25T16:16:06.896Z,2284
2016-08-25T16:17:20.568Z,2284
2016-08-25T16:18:33.927Z,2284
2016-08-25T16:19:47.479Z,2284
2016-08-25T16:21:01.715Z,2284
2016-08-25T16:22:15.248Z,2280
2016-08-25T16:23:28.469Z,2272
2016-08-25T16:24:42.066Z,2272
2016-08-25T16:25:55.297Z,2268
2016-08-25T16:27:10.931Z,2260
2016-08-25T16:28:24.161Z,2260
2016-08-25T16:29:37.217Z,2252